createdAt,value
2023-04-01T00:01:49.490Z,0.40
2023-04-01T00:04:17.752Z,0.50
2023-04-01T00:06:46.258Z,0.43
2023-04-01T00:09:14.456Z,0.60
2023-04-01T00:11:42.644Z,0.57
2023-04-01T00:14:11.558Z,0.57
2023-04-01T00:16:41.330Z,0.30
2023-04-01T00:19:18.331Z,0.60
2023-04-01T00:21:55.310Z,0.63
2023-04-01T00:24:23.544Z,0.73
2023-04-01T00:26:51.823Z,0.37
2023-04-01T00:29:20.404Z,0.60
2023-04-01T00:32:08.271Z,0.77
2023-04-01T00:34:36.242Z,0.77
2023-04-01T00:37:04.291Z,0.30
2023-04-01T00:39:33.065Z,0.40
2023-04-01T00:42:14.881Z,0.63
2023-04-01T00:44:44.469Z,0.57
2023-04-01T00:47:15.043Z,0.80
2023-04-01T00:49:46.107Z,0.37
2023-04-01T00:52:17.622Z,0.60
2023-04-01T00:54:56.643Z,0.50
2023-04-01T00:57:38.671Z,0.50
2023-04-01T01:00:08.688Z,0.70
2023-04-01T01:02:38.350Z,0.40
2023-04-01T01:05:10.227Z,0.43
2023-04-01T01:07:45.809Z,0.50
2023-04-01T01:10:19.839Z,0.40
2023-04-01T01:12:56.620Z,0.83
2023-04-01T01:15:28.270Z,0.47
2023-04-01T01:18:04.323Z,0.73
2023-04-01T01:20:56.146Z,0.57
2023-04-01T01:24:07.413Z,0.40
2023-04-01T01:26:49.080Z,0.50
2023-04-01T01:29:42.489Z,0.90
2023-04-01T01:32:37.393Z,0.40
2023-04-01T01:35:21.254Z,0.60
2023-04-01T01:37:53.170Z,0.30
2023-04-01T01:40:29.603Z,0.63
2023-04-01T01:43:02.961Z,0.60
2023-04-01T01:45:54.528Z,0.27
2023-04-01T01:48:25.410Z,0.20
2023-04-01T01:50:55.918Z,0.20
2023-04-01T01:53:24.253Z,0.30
2023-04-01T01:55:53.096Z,0.23
2023-04-01T01:58:32.712Z,0.20
2023-04-01T02:01:03.323Z,0.20
2023-04-01T02:03:35.354Z,0.20
2023-04-01T02:06:23.977Z,0.30
2023-04-01T02:08:55.703Z,0.10
2023-04-01T02:11:30.512Z,0.40
2023-04-01T02:14:04.193Z,0.30
2023-04-01T02:16:38.056Z,0.70
2023-04-01T02:19:10.212Z,0.30
2023-04-01T02:21:46.808Z,0.00
2023-04-01T02:24:17.076Z,0.10
2023-04-01T02:26:47.413Z,0.17
2023-04-01T02:29:34.523Z,0.10
2023-04-01T02:32:04.237Z,0.07
2023-04-01T02:34:32.596Z,0.23
2023-04-01T02:37:03.156Z,0.20
2023-04-01T02:39:31.651Z,0.20
2023-04-01T02:41:59.941Z,0.20
2023-04-01T02:44:28.217Z,0.13
2023-04-01T02:46:56.319Z,0.33
2023-04-01T02:49:24.455Z,0.20
2023-04-01T02:51:53.097Z,0.30
2023-04-01T02:54:26.014Z,0.20
2023-04-01T02:56:54.225Z,0.40
2023-04-01T02:59:22.269Z,0.10
2023-04-01T03:01:50.342Z,0.20
2023-04-01T03:04:18.810Z,0.20
2023-04-01T03:06:51.240Z,0.13
2023-04-01T03:09:19.395Z,0.30
2023-04-01T03:11:48.834Z,0.30
2023-04-01T03:14:16.936Z,0.13
2023-04-01T03:16:48.178Z,0.20
2023-04-01T03:19:16.604Z,0.10
2023-04-01T03:21:45.058Z,0.10
2023-04-01T03:24:13.010Z,0.30
2023-04-01T03:26:41.369Z,0.10
2023-04-01T03:29:11.816Z,0.20
2023-04-01T03:31:59.054Z,0.10
2023-04-01T03:34:27.617Z,0.10
2023-04-01T03:36:56.406Z,0.40
2023-04-01T03:39:24.759Z,0.20
2023-04-01T03:42:07.635Z,0.10
2023-04-01T03:44:40.021Z,0.47
2023-04-01T03:47:10.149Z,0.20
2023-04-01T03:49:38.404Z,0.30
2023-04-01T03:52:06.578Z,0.27
2023-04-01T03:54:35.914Z,0.10
2023-04-01T03:57:04.176Z,0.20
2023-04-01T03:59:32.566Z,0.10
2023-04-01T04:02:02.317Z,0.20
2023-04-01T04:04:33.771Z,0.10
2023-04-01T04:07:04.890Z,0.23
2023-04-01T04:09:51.473Z,0.10
2023-04-01T04:12:19.522Z,0.20
2023-04-01T04:14:47.699Z,0.20
2023-04-01T04:17:17.471Z,0.30
2023-04-01T04:19:49.332Z,0.17
2023-04-01T04:22:18.174Z,0.20
2023-04-01T04:24:46.159Z,0.20
2023-04-01T04:27:15.577Z,0.10
2023-04-01T04:29:55.096Z,0.30
2023-04-01T04:32:24.697Z,0.13
2023-04-01T04:34:52.810Z,0.10
2023-04-01T04:37:21.542Z,0.20
2023-04-01T04:39:50.069Z,0.17
2023-04-01T04:42:30.519Z,0.37
2023-04-01T04:45:16.451Z,0.10
2023-04-01T04:47:54.783Z,0.20
2023-04-01T04:50:23.217Z,0.20
2023-04-01T04:53:00.654Z,0.20
2023-04-01T04:55:29.603Z,0.10
2023-04-01T04:58:17.083Z,0.40
2023-04-01T05:00:47.137Z,0.30
2023-04-01T05:03:23.952Z,0.33
2023-04-01T05:05:53.559Z,0.20
2023-04-01T05:08:22.302Z,0.20
2023-04-01T05:10:50.402Z,0.30
2023-04-01T05:13:18.777Z,0.47
2023-04-01T05:15:49.868Z,0.50
2023-04-01T05:18:18.539Z,0.40
2023-04-01T05:20:56.063Z,0.27
2023-04-01T05:23:24.660Z,0.33
2023-04-01T05:25:53.793Z,0.50
2023-04-01T05:28:30.944Z,0.43
2023-04-01T05:31:00.804Z,0.30
2023-04-01T05:33:33.572Z,0.40
2023-04-01T05:36:10.603Z,0.27
2023-04-01T05:38:39.601Z,0.23
2023-04-01T05:41:10.765Z,0.70
2023-04-01T05:43:44.415Z,0.40
2023-04-01T05:46:35.877Z,0.50
2023-04-01T05:49:21.035Z,0.57
2023-04-01T05:52:00.926Z,0.60
2023-04-01T05:54:30.049Z,0.93
2023-04-01T05:56:58.235Z,0.67
2023-04-01T05:59:26.278Z,1.13
2023-04-01T06:01:55.103Z,1.23
2023-04-01T06:04:23.467Z,0.80
2023-04-01T06:06:52.472Z,0.40
2023-04-01T06:09:27.981Z,0.70
2023-04-01T06:12:16.791Z,0.60
2023-04-01T06:15:24.944Z,0.60
2023-04-01T06:18:10.810Z,1.00
2023-04-01T06:20:48.800Z,0.47
2023-04-01T06:23:47.702Z,0.30
2023-04-01T06:26:32.032Z,0.40
2023-04-01T06:29:13.266Z,0.27
2023-04-01T06:31:57.868Z,0.40
2023-04-01T06:34:45.123Z,0.57
2023-04-01T06:37:25.556Z,0.80
2023-04-01T06:40:31.408Z,1.40
2023-04-01T06:43:15.164Z,0.10
2023-04-01T06:46:21.955Z,0.30
2023-04-01T06:49:50.862Z,0.40
2023-04-01T06:52:49.833Z,0.40
2023-04-01T06:55:41.525Z,0.20
2023-04-01T06:58:24.362Z,0.40
2023-04-01T07:00:55.752Z,0.40
2023-04-01T07:03:33.951Z,0.30
2023-04-01T07:06:06.284Z,0.23
2023-04-01T07:08:44.127Z,0.30
2023-04-01T07:11:16.544Z,0.40
2023-04-01T07:14:11.266Z,0.40
2023-04-01T07:16:46.110Z,1.90
2023-04-01T07:19:20.785Z,0.30
2023-04-01T07:22:23.731Z,9.37
2023-04-01T07:25:15.158Z,4.73
2023-04-01T07:27:47.495Z,1.83
2023-04-01T07:30:17.477Z,2.07
2023-04-01T07:32:53.125Z,0.93
2023-04-01T07:35:35.420Z,1.70
2023-04-01T07:38:17.079Z,1.13
2023-04-01T07:40:54.277Z,4.27
2023-04-01T07:43:38.509Z,6.03
2023-04-01T07:46:44.894Z,7.27
2023-04-01T07:49:19.316Z,5.53
2023-04-01T07:51:59.736Z,9.53
2023-04-01T07:54:35.107Z,2.80
2023-04-01T07:57:09.636Z,2.23
2023-04-01T08:00:00.089Z,1.13
2023-04-01T08:02:58.572Z,1.20
2023-04-01T08:05:32.763Z,1.43
2023-04-01T08:08:14.295Z,1.33
2023-04-01T08:11:34.204Z,1.67
2023-04-01T08:14:28.273Z,0.50
2023-04-01T08:17:23.020Z,0.40
2023-04-01T08:20:10.593Z,0.40
2023-04-01T08:22:44.187Z,0.40
2023-04-01T08:25:26.438Z,0.30
2023-04-01T08:28:02.003Z,0.43
2023-04-01T08:30:41.281Z,0.50
2023-04-01T08:33:17.132Z,0.80
2023-04-01T08:35:51.326Z,0.50
2023-04-01T08:38:26.978Z,0.30
2023-04-01T08:41:02.566Z,0.37
2023-04-01T08:44:27.055Z,0.50
2023-04-01T08:47:26.666Z,0.20
2023-04-01T08:50:36.455Z,0.40
2023-04-01T08:53:36.988Z,0.40
2023-04-01T08:56:17.332Z,0.57
2023-04-01T08:59:15.696Z,0.50
2023-04-01T09:02:16.996Z,0.70
2023-04-01T09:05:24.664Z,0.30
2023-04-01T09:08:06.159Z,0.20
2023-04-01T09:11:02.594Z,0.30
2023-04-01T09:14:08.903Z,0.30
2023-04-01T09:17:20.510Z,0.17
2023-04-01T09:20:11.163Z,0.20
2023-04-01T09:22:52.735Z,0.10
2023-04-01T09:25:32.385Z,0.10
2023-04-01T09:28:12.730Z,0.10
2023-04-01T09:31:16.401Z,0.30
2023-04-01T09:34:23.483Z,0.50
2023-04-01T09:37:21.727Z,0.50
2023-04-01T09:40:18.221Z,0.10
2023-04-01T09:43:18.013Z,0.03
2023-04-01T09:46:00.571Z,0.23
2023-04-01T09:49:19.677Z,0.10
2023-04-01T09:52:01.278Z,0.70
2023-04-01T09:54:54.048Z,0.20
2023-04-01T09:58:03.655Z,0.00
2023-04-01T10:01:28.923Z,0.10
2023-04-01T10:04:38.436Z,0.30
2023-04-01T10:07:37.617Z,0.20
2023-04-01T10:10:37.273Z,0.10
2023-04-01T10:13:27.626Z,0.10
2023-04-01T10:16:43.622Z,0.30
2023-04-01T10:19:56.310Z,0.00
2023-04-01T10:22:51.156Z,0.20
2023-04-01T10:25:48.814Z,0.30
2023-04-01T10:28:46.415Z,0.37
2023-04-01T10:31:45.213Z,0.10
2023-04-01T10:34:50.097Z,0.10
2023-04-01T10:37:34.308Z,0.60
2023-04-01T10:40:38.105Z,0.20
2023-04-01T10:44:13.894Z,0.10
2023-04-01T10:47:04.900Z,0.20
2023-04-01T10:50:12.385Z,0.13
2023-04-01T10:53:33.191Z,0.20
2023-04-01T10:56:36.991Z,0.10
2023-04-01T11:00:00.445Z,0.10
2023-04-01T11:03:42.153Z,0.30
2023-04-01T11:06:58.538Z,0.27
2023-04-01T11:09:52.569Z,0.20
2023-04-01T11:13:05.511Z,0.10
2023-04-01T11:15:50.355Z,0.10
2023-04-01T11:18:48.487Z,0.10
2023-04-01T11:21:51.390Z,0.20
2023-04-01T11:24:46.556Z,0.20
2023-04-01T11:28:03.786Z,0.10
2023-04-01T11:30:46.463Z,0.00
2023-04-01T11:33:21.909Z,0.00
2023-04-01T11:36:11.090Z,0.10
2023-04-01T11:39:00.956Z,0.10
2023-04-01T11:41:54.138Z,0.10
2023-04-01T11:44:50.292Z,0.00
2023-04-01T11:47:46.973Z,0.03
2023-04-01T11:50:32.462Z,0.00
2023-04-01T11:53:24.856Z,0.00
2023-04-01T11:56:04.044Z,0.00
2023-04-01T11:58:59.029Z,0.00
2023-04-01T12:01:45.433Z,0.00
2023-04-01T12:04:43.711Z,0.03
2023-04-01T12:07:29.818Z,0.10
2023-04-01T12:10:07.929Z,0.00
2023-04-01T12:12:54.129Z,0.00
2023-04-01T12:15:34.680Z,0.20
2023-04-01T12:18:10.336Z,0.00
2023-04-01T12:20:50.570Z,0.10
2023-04-01T12:23:44.308Z,0.10
2023-04-01T12:26:28.582Z,0.10
2023-04-01T12:29:16.356Z,0.10
2023-04-01T12:31:55.006Z,0.50
2023-04-01T12:34:53.853Z,0.10
2023-04-01T12:37:31.609Z,0.20
2023-04-01T12:40:29.681Z,0.90
2023-04-01T12:43:21.196Z,0.30
2023-04-01T12:45:54.160Z,0.30
2023-04-01T12:49:01.722Z,0.20
2023-04-01T12:51:51.047Z,0.20
2023-04-01T12:54:37.928Z,0.10
2023-04-01T12:57:17.890Z,0.10
2023-04-01T13:00:04.119Z,0.00
2023-04-01T13:02:47.466Z,0.10
2023-04-01T13:05:32.925Z,0.00
2023-04-01T13:08:22.829Z,0.10
2023-04-01T13:11:04.683Z,0.20
2023-04-01T13:13:47.581Z,0.10
2023-04-01T13:16:20.405Z,0.30
2023-04-01T13:18:59.577Z,0.20
2023-04-01T13:21:40.764Z,0.10
2023-04-01T13:24:21.381Z,0.20
2023-04-01T13:27:00.497Z,0.30
2023-04-01T13:29:33.988Z,0.00
2023-04-01T13:32:33.212Z,0.17
2023-04-01T13:35:25.914Z,0.00
2023-04-01T13:38:12.558Z,0.10
2023-04-01T13:41:02.181Z,0.10
2023-04-01T13:43:37.872Z,0.10
2023-04-01T13:46:25.885Z,0.20
2023-04-01T13:49:22.071Z,0.00
2023-04-01T13:52:13.861Z,0.10
2023-04-01T13:55:01.036Z,0.73
2023-04-01T13:57:55.920Z,0.00
2023-04-01T14:00:49.383Z,0.07
2023-04-01T14:03:34.540Z,0.20
2023-04-01T14:06:19.460Z,0.20
2023-04-01T14:09:12.917Z,0.00
2023-04-01T14:11:49.769Z,0.23
2023-04-01T14:14:30.270Z,0.10
2023-04-01T14:17:10.725Z,0.30
2023-04-01T14:20:21.763Z,0.60
2023-04-01T14:23:14.885Z,0.50
2023-04-01T14:26:03.887Z,0.20
2023-04-01T14:28:38.466Z,0.23
2023-04-01T14:31:29.225Z,0.10
2023-04-01T14:34:07.593Z,0.10
2023-04-01T14:37:02.576Z,0.03
2023-04-01T14:39:54.514Z,0.00
2023-04-01T14:42:43.662Z,0.10
2023-04-01T14:45:45.774Z,0.10
2023-04-01T14:48:25.348Z,0.10
2023-04-01T14:50:56.644Z,0.10
2023-04-01T14:53:31.331Z,0.10
2023-04-01T14:56:03.799Z,0.10
2023-04-01T14:58:44.565Z,0.20
2023-04-01T15:01:37.147Z,0.20
2023-04-01T15:04:25.402Z,0.20
2023-04-01T15:07:05.770Z,0.40
2023-04-01T15:09:42.792Z,0.10
2023-04-01T15:12:25.507Z,0.00
2023-04-01T15:15:05.771Z,0.00
2023-04-01T15:17:59.487Z,0.07
2023-04-01T15:20:44.872Z,0.10
2023-04-01T15:23:27.237Z,0.10
2023-04-01T15:26:23.768Z,0.03
2023-04-01T15:29:25.145Z,0.10
2023-04-01T15:31:59.167Z,0.10
2023-04-01T15:34:36.048Z,0.20
2023-04-01T15:37:12.057Z,0.10
2023-04-01T15:39:53.706Z,0.30
2023-04-01T15:42:33.932Z,0.10
2023-04-01T15:45:18.535Z,0.10
2023-04-01T15:47:55.967Z,0.20
2023-04-01T15:50:51.124Z,0.30
2023-04-01T15:53:37.626Z,0.50
2023-04-01T15:56:18.233Z,0.20
2023-04-01T15:59:01.581Z,0.23
2023-04-01T16:01:41.669Z,0.30
2023-04-01T16:04:27.705Z,0.10
2023-04-01T16:07:07.103Z,0.20
2023-04-01T16:09:46.610Z,0.43
2023-04-01T16:12:19.949Z,0.20
2023-04-01T16:15:04.288Z,0.70
2023-04-01T16:17:46.942Z,0.30
2023-04-01T16:20:21.854Z,0.20
2023-04-01T16:23:00.222Z,0.27
2023-04-01T16:25:36.126Z,0.27
2023-04-01T16:28:23.324Z,0.30
2023-04-01T16:30:59.780Z,0.40
2023-04-01T16:33:40.052Z,0.43
2023-04-01T16:36:21.519Z,0.20
2023-04-01T16:38:55.217Z,0.50
2023-04-01T16:41:28.122Z,0.30
2023-04-01T16:44:07.774Z,0.30
2023-04-01T16:46:41.606Z,0.40
2023-04-01T16:49:30.017Z,0.70
2023-04-01T16:52:14.611Z,0.40
2023-04-01T16:54:48.348Z,0.50
2023-04-01T16:57:27.552Z,0.40
2023-04-01T17:00:01.921Z,0.40
2023-04-01T17:02:35.480Z,0.30
2023-04-01T17:05:07.585Z,0.73
2023-04-01T17:07:47.501Z,0.50
2023-04-01T17:10:37.582Z,0.43
2023-04-01T17:13:36.625Z,0.60
2023-04-01T17:16:31.051Z,0.50
2023-04-01T17:19:08.683Z,0.80
2023-04-01T17:21:52.858Z,0.93
2023-04-01T17:24:34.024Z,1.03
2023-04-01T17:27:16.084Z,0.70
2023-04-01T17:30:03.485Z,1.10
2023-04-01T17:32:47.403Z,5.00
2023-04-01T17:35:21.473Z,0.80
2023-04-01T17:38:06.525Z,0.60
2023-04-01T17:40:46.458Z,0.60
2023-04-01T17:43:24.691Z,0.80
2023-04-01T17:45:57.235Z,0.57
2023-04-01T17:48:40.688Z,0.60
2023-04-01T17:51:28.572Z,0.57
2023-04-01T17:54:13.181Z,0.80
2023-04-01T17:56:51.728Z,0.60
2023-04-01T17:59:31.867Z,0.87
2023-04-01T18:02:06.550Z,0.73
2023-04-01T18:05:01.100Z,1.70
2023-04-01T18:07:46.765Z,2.20
2023-04-01T18:10:32.175Z,1.90
2023-04-01T18:13:33.314Z,0.40
2023-04-01T18:16:13.946Z,0.30
2023-04-01T18:18:54.308Z,0.60
2023-04-01T18:21:32.887Z,0.20
2023-04-01T18:24:05.621Z,0.30
2023-04-01T18:26:37.988Z,0.23
2023-04-01T18:29:16.873Z,0.27
2023-04-01T18:31:47.776Z,0.37
2023-04-01T18:34:28.637Z,0.30
2023-04-01T18:37:01.524Z,0.13
2023-04-01T18:39:37.889Z,0.40
2023-04-01T18:42:18.235Z,0.60
2023-04-01T18:44:51.042Z,0.40
2023-04-01T18:47:29.207Z,0.53
2023-04-01T18:50:04.038Z,0.30
2023-04-01T18:52:38.180Z,0.40
2023-04-01T18:55:31.194Z,0.40
2023-04-01T18:58:15.790Z,0.23
2023-04-01T19:00:50.694Z,0.43
2023-04-01T19:03:24.520Z,0.40
2023-04-01T19:06:07.787Z,0.40
2023-04-01T19:08:41.363Z,0.37
2023-04-01T19:11:16.768Z,0.53
2023-04-01T19:13:59.053Z,3.77
2023-04-01T19:16:38.806Z,0.80
2023-04-01T19:19:23.892Z,1.00
2023-04-01T19:21:58.172Z,0.80
2023-04-01T19:24:53.532Z,1.13
2023-04-01T19:27:34.075Z,0.77
2023-04-01T19:30:23.602Z,1.17
2023-04-01T19:32:58.505Z,0.83
2023-04-01T19:35:37.871Z,1.03
2023-04-01T19:38:13.380Z,0.63
2023-04-01T19:40:53.787Z,0.70
2023-04-01T19:43:36.658Z,0.53
2023-04-01T19:46:16.332Z,0.77
2023-04-01T19:48:53.685Z,0.67
2023-04-01T19:51:31.240Z,0.33
2023-04-01T19:54:06.280Z,0.40
2023-04-01T19:56:41.380Z,0.23
2023-04-01T19:59:18.959Z,0.10
2023-04-01T20:01:52.824Z,1.20
2023-04-01T20:04:26.778Z,2.70
2023-04-01T20:06:59.496Z,2.10
2023-04-01T20:09:50.779Z,0.70
2023-04-01T20:12:31.635Z,0.40
2023-04-01T20:15:03.105Z,0.30
2023-04-01T20:17:41.099Z,0.40
2023-04-01T20:20:22.793Z,0.40
2023-04-01T20:23:04.226Z,0.50
2023-04-01T20:25:40.160Z,0.77
2023-04-01T20:28:15.680Z,0.40
2023-04-01T20:31:05.377Z,0.57
2023-04-01T20:34:10.701Z,0.57
2023-04-01T20:36:52.634Z,1.10
2023-04-01T20:39:42.384Z,0.87
2023-04-01T20:42:36.445Z,0.97
2023-04-01T20:45:21.117Z,0.77
2023-04-01T20:48:06.175Z,0.77
2023-04-01T20:50:45.774Z,0.90
2023-04-01T20:53:18.229Z,0.60
2023-04-01T20:56:15.184Z,0.90
2023-04-01T20:58:53.830Z,0.90
2023-04-01T21:01:34.875Z,1.00
2023-04-01T21:04:30.457Z,1.20
2023-04-01T21:07:23.272Z,1.73
2023-04-01T21:10:09.062Z,1.00
2023-04-01T21:12:48.639Z,1.17
2023-04-01T21:15:37.836Z,1.20
2023-04-01T21:18:40.584Z,1.30
2023-04-01T21:21:23.549Z,1.00
2023-04-01T21:24:25.141Z,1.17
2023-04-01T21:27:01.881Z,1.10
2023-04-01T21:29:47.927Z,0.80
2023-04-01T21:32:43.798Z,0.60
2023-04-01T21:35:23.619Z,0.60
2023-04-01T21:38:14.882Z,0.40
2023-04-01T21:40:59.815Z,0.10
2023-04-01T21:44:00.805Z,0.17
2023-04-01T21:46:53.539Z,0.30
2023-04-01T21:49:51.600Z,0.20
2023-04-01T21:52:47.966Z,0.10
2023-04-01T21:56:03.658Z,0.20
2023-04-01T21:59:03.949Z,0.20
2023-04-01T22:01:56.825Z,0.30
2023-04-01T22:04:59.623Z,0.30
2023-04-01T22:07:33.810Z,0.20
2023-04-01T22:10:11.881Z,0.60
2023-04-01T22:12:48.040Z,0.20
2023-04-01T22:15:26.558Z,0.20
2023-04-01T22:18:02.644Z,0.20
2023-04-01T22:20:38.002Z,0.23
2023-04-01T22:23:32.799Z,0.10
2023-04-01T22:26:07.313Z,0.20
2023-04-01T22:28:40.809Z,0.20
2023-04-01T22:31:15.225Z,0.13
2023-04-01T22:33:51.634Z,0.10
2023-04-01T22:36:29.632Z,0.10
2023-04-01T22:39:23.352Z,0.20
2023-04-01T22:42:02.579Z,0.13
2023-04-01T22:44:49.386Z,0.23
2023-04-01T22:47:27.472Z,0.20
2023-04-01T22:50:01.330Z,0.20
2023-04-01T22:52:35.523Z,0.20
2023-04-01T22:55:19.573Z,0.30
2023-04-01T22:57:53.980Z,0.13
2023-04-01T23:00:26.318Z,0.10
2023-04-01T23:03:13.978Z,0.40
2023-04-01T23:05:53.183Z,0.30
2023-04-01T23:09:05.087Z,0.10
2023-04-01T23:11:37.853Z,0.17
2023-04-01T23:14:47.708Z,0.30
2023-04-01T23:17:40.423Z,0.33
2023-04-01T23:20:34.285Z,0.63
2023-04-01T23:23:17.591Z,0.40
2023-04-01T23:25:56.278Z,0.10
2023-04-01T23:28:48.346Z,0.93
2023-04-01T23:31:50.201Z,0.27
2023-04-01T23:34:26.676Z,0.20
2023-04-01T23:37:00.096Z,0.20
2023-04-01T23:39:44.889Z,0.20
2023-04-01T23:42:20.905Z,0.30
2023-04-01T23:44:51.409Z,0.13
2023-04-01T23:47:22.681Z,0.20
2023-04-01T23:49:55.112Z,0.30
2023-04-01T23:52:37.283Z,0.10
2023-04-01T23:55:25.240Z,0.20
2023-04-01T23:58:16.296Z,0.20
